createdAt,value
2022-10-20T00:00:32.579Z,10.54
2022-10-20T00:03:00.011Z,10.57
2022-10-20T00:05:27.502Z,10.53
2022-10-20T00:07:54.932Z,10.54
2022-10-20T00:10:22.352Z,10.48
2022-10-20T00:12:49.770Z,10.44
2022-10-20T00:15:17.751Z,10.53
2022-10-20T00:17:46.528Z,10.51
2022-10-20T00:22:42.372Z,10.40
2022-10-20T00:25:10.178Z,10.50
2022-10-20T00:27:37.637Z,10.52
2022-10-20T00:30:06.094Z,10.40
2022-10-20T00:32:33.848Z,10.49
2022-10-20T00:35:03.016Z,10.48
2022-10-20T00:37:30.460Z,10.49
2022-10-20T00:39:57.875Z,10.42
2022-10-20T00:42:25.340Z,10.39
2022-10-20T00:44:56.137Z,10.42
2022-10-20T00:47:35.239Z,10.41
2022-10-20T00:50:09.467Z,10.34
2022-10-20T00:52:38.279Z,10.40
2022-10-20T00:55:08.193Z,10.35
2022-10-20T00:57:36.679Z,10.48
2022-10-20T01:00:06.339Z,10.47
2022-10-20T01:02:33.777Z,10.44
2022-10-20T01:05:01.612Z,10.39
2022-10-20T01:07:30.584Z,10.45
2022-10-20T01:09:58.241Z,10.39
2022-10-20T01:12:31.274Z,10.34
2022-10-20T01:15:05.804Z,10.33
2022-10-20T01:17:44.197Z,10.25
2022-10-20T01:20:24.126Z,10.32
2022-10-20T01:23:31.084Z,10.28
2022-10-20T01:26:17.761Z,10.21
2022-10-20T01:28:54.019Z,10.25
2022-10-20T01:31:29.413Z,10.26
2022-10-20T01:34:04.220Z,9.96
2022-10-20T01:36:38.170Z,10.20
2022-10-20T01:39:10.434Z,10.17
2022-10-20T01:41:43.818Z,10.12
2022-10-20T01:44:17.044Z,10.07
2022-10-20T01:46:46.092Z,10.17
2022-10-20T01:49:15.400Z,10.17
2022-10-20T01:51:42.853Z,10.21
2022-10-20T01:54:21.508Z,10.16
2022-10-20T01:56:58.524Z,9.98
2022-10-20T01:59:42.027Z,10.15
2022-10-20T02:02:27.105Z,10.12
2022-10-20T02:05:11.376Z,10.13
2022-10-20T02:07:40.538Z,10.16
2022-10-20T02:10:13.306Z,10.12
2022-10-20T02:12:44.845Z,10.10
2022-10-20T02:15:18.055Z,10.14
2022-10-20T02:17:47.694Z,10.15
2022-10-20T02:20:16.868Z,10.10
2022-10-20T02:22:45.714Z,10.14
2022-10-20T02:25:13.921Z,10.13
2022-10-20T02:27:47.217Z,10.15
2022-10-20T02:30:19.306Z,10.15
2022-10-20T02:32:52.644Z,10.12
2022-10-20T02:35:23.294Z,10.11
2022-10-20T02:37:53.629Z,9.69
2022-10-20T02:40:22.181Z,10.06
2022-10-20T02:42:51.819Z,10.12
2022-10-20T02:45:20.968Z,10.09
2022-10-20T02:47:48.431Z,10.04
2022-10-20T02:50:16.974Z,10.09
2022-10-20T02:52:44.426Z,10.08
2022-10-20T02:55:11.904Z,10.04
2022-10-20T02:58:11.634Z,9.91
2022-10-20T03:00:40.456Z,10.05
2022-10-20T03:03:07.923Z,10.05
2022-10-20T03:05:39.998Z,9.99
2022-10-20T03:08:07.411Z,10.01
2022-10-20T03:10:35.230Z,9.99
2022-10-20T03:13:02.646Z,9.97
2022-10-20T03:15:30.315Z,10.01
2022-10-20T03:17:59.139Z,9.98
2022-10-20T03:20:26.715Z,9.98
2022-10-20T03:22:54.177Z,9.90
2022-10-20T03:25:21.610Z,10.00
2022-10-20T03:27:49.006Z,9.92
2022-10-20T03:30:16.563Z,9.99
2022-10-20T03:32:43.967Z,10.04
2022-10-20T03:35:12.756Z,10.02
2022-10-20T03:37:40.196Z,10.04
2022-10-20T03:40:08.584Z,10.04
2022-10-20T03:42:36.334Z,9.96
2022-10-20T03:45:04.497Z,10.06
2022-10-20T03:47:31.916Z,10.02
2022-10-20T03:49:59.360Z,10.03
2022-10-20T03:52:28.237Z,9.96
2022-10-20T03:54:55.676Z,9.95
2022-10-20T03:57:23.361Z,9.97
2022-10-20T03:59:50.845Z,10.00
2022-10-20T04:02:30.515Z,10.00
2022-10-20T04:04:58.071Z,9.98
2022-10-20T04:07:25.544Z,9.93
2022-10-20T04:09:54.319Z,9.97
2022-10-20T04:12:21.727Z,9.98
2022-10-20T04:14:49.621Z,9.93
2022-10-20T04:17:17.100Z,9.97
2022-10-20T04:19:44.538Z,9.94
2022-10-20T04:22:11.965Z,9.91
2022-10-20T04:24:39.717Z,9.84
2022-10-20T04:27:08.673Z,9.83
2022-10-20T04:29:36.213Z,9.78
2022-10-20T04:32:04.291Z,9.76
2022-10-20T04:34:31.730Z,9.72
2022-10-20T04:36:59.428Z,9.71
2022-10-20T04:39:27.191Z,9.73
2022-10-20T04:41:54.713Z,9.69
2022-10-20T04:44:23.486Z,9.68
2022-10-20T04:46:50.904Z,9.64
2022-10-20T04:49:18.317Z,9.66
2022-10-20T04:51:45.779Z,9.54
2022-10-20T04:54:13.215Z,9.63
2022-10-20T04:56:40.796Z,9.67
2022-10-20T04:59:11.005Z,9.61
2022-10-20T05:01:42.507Z,9.61
2022-10-20T05:04:10.463Z,9.58
2022-10-20T05:06:38.318Z,9.55
2022-10-20T05:09:08.026Z,9.61
2022-10-20T05:11:37.367Z,9.58
2022-10-20T05:14:04.980Z,9.60
2022-10-20T05:16:32.599Z,9.54
2022-10-20T05:19:01.542Z,9.49
2022-10-20T05:21:30.786Z,9.51
2022-10-20T05:23:59.796Z,9.49
2022-10-20T05:26:29.427Z,9.45
2022-10-20T05:28:56.844Z,9.44
2022-10-20T05:31:24.886Z,9.43
2022-10-20T05:33:54.267Z,9.44
2022-10-20T05:36:24.936Z,9.45
2022-10-20T05:38:53.861Z,9.40
2022-10-20T05:41:23.245Z,9.40
2022-10-20T05:43:52.123Z,9.24
2022-10-20T05:46:20.429Z,9.41
2022-10-20T05:48:48.080Z,9.40
2022-10-20T05:51:17.476Z,9.43
2022-10-20T05:53:47.164Z,9.42
2022-10-20T05:56:17.024Z,9.42
2022-10-20T05:58:45.131Z,9.42
2022-10-20T06:01:17.199Z,9.41
2022-10-20T06:03:47.707Z,9.41
2022-10-20T06:06:15.203Z,9.41
2022-10-20T06:08:42.720Z,9.40
2022-10-20T06:11:13.172Z,9.39
2022-10-20T06:13:40.571Z,9.37
2022-10-20T06:16:10.548Z,9.38
2022-10-20T06:18:38.783Z,9.33
2022-10-20T06:21:08.011Z,9.33
2022-10-20T06:23:35.629Z,9.27
2022-10-20T06:26:04.441Z,9.41
2022-10-20T06:28:35.047Z,9.43
2022-10-20T06:31:11.634Z,9.42
2022-10-20T06:33:39.121Z,9.44
2022-10-20T06:36:06.939Z,9.44
2022-10-20T06:38:34.383Z,9.45
2022-10-20T06:41:02.498Z,9.44
2022-10-20T06:43:30.034Z,9.44
2022-10-20T06:46:00.683Z,9.44
2022-10-20T06:48:29.204Z,9.47
2022-10-20T06:50:57.465Z,9.45
2022-10-20T06:53:25.703Z,9.47
2022-10-20T06:55:57.874Z,9.49
2022-10-20T06:58:25.408Z,9.52
2022-10-20T07:01:02.625Z,9.50
2022-10-20T07:03:33.912Z,9.59
2022-10-20T07:06:01.855Z,9.66
2022-10-20T07:08:30.898Z,9.67
2022-10-20T07:11:00.476Z,9.67
2022-10-20T07:13:29.141Z,9.72
2022-10-20T07:15:57.220Z,9.77
2022-10-20T07:18:27.230Z,9.83
2022-10-20T07:20:58.982Z,9.82
2022-10-20T07:23:27.085Z,9.81
2022-10-20T07:26:01.400Z,9.93
2022-10-20T07:28:28.965Z,9.93
2022-10-20T07:30:56.382Z,9.96
2022-10-20T07:33:23.903Z,9.91
2022-10-20T07:35:52.626Z,9.98
2022-10-20T07:38:20.042Z,10.00
2022-10-20T07:40:47.462Z,10.05
2022-10-20T07:43:14.933Z,10.11
2022-10-20T07:45:42.417Z,10.12
2022-10-20T07:48:10.590Z,10.20
2022-10-20T07:50:38.278Z,10.22
2022-10-20T07:53:07.072Z,10.22
2022-10-20T07:55:39.191Z,10.20
2022-10-20T07:58:06.881Z,10.24
2022-10-20T08:00:34.347Z,10.23
2022-10-20T08:03:01.822Z,10.25
2022-10-20T08:05:29.684Z,10.29
2022-10-20T08:07:58.213Z,10.40
2022-10-20T08:10:27.180Z,10.45
2022-10-20T08:12:54.590Z,10.44
2022-10-20T08:18:06.719Z,10.72
2022-10-20T08:20:34.237Z,10.84
2022-10-20T08:23:01.693Z,10.93
2022-10-20T08:25:30.504Z,11.12
2022-10-20T08:30:26.489Z,11.29
2022-10-20T08:32:54.443Z,11.29
2022-10-20T08:35:22.428Z,11.28
2022-10-20T08:37:50.306Z,11.25
2022-10-20T08:40:20.429Z,11.28
2022-10-20T08:42:50.040Z,11.32
2022-10-20T08:45:20.838Z,11.36
2022-10-20T08:47:50.358Z,11.39
2022-10-20T08:50:19.374Z,11.35
2022-10-20T08:52:48.655Z,11.33
2022-10-20T08:55:25.617Z,11.32
2022-10-20T08:57:59.428Z,11.29
2022-10-20T09:00:27.609Z,11.29
2022-10-20T09:02:55.284Z,11.29
2022-10-20T09:05:34.705Z,11.29
2022-10-20T09:08:02.165Z,11.23
2022-10-20T09:10:34.492Z,11.29
2022-10-20T09:13:07.543Z,11.27
2022-10-20T09:15:35.093Z,11.21
2022-10-20T09:18:06.434Z,11.27
2022-10-20T09:20:39.628Z,11.35
2022-10-20T09:23:28.234Z,11.43
2022-10-20T09:25:57.605Z,11.51
2022-10-20T09:28:34.210Z,11.64
2022-10-20T09:31:23.000Z,11.73
2022-10-20T09:33:50.635Z,11.80
2022-10-20T09:36:21.521Z,11.84
2022-10-20T09:38:52.085Z,11.84
2022-10-20T09:41:21.692Z,11.90
2022-10-20T09:43:57.234Z,11.92
2022-10-20T09:46:29.177Z,11.95
2022-10-20T09:48:57.426Z,11.87
2022-10-20T09:51:26.842Z,11.91
2022-10-20T09:53:58.901Z,11.87
2022-10-20T09:56:29.217Z,11.86
2022-10-20T09:59:00.264Z,11.89
2022-10-20T10:01:28.460Z,11.89
2022-10-20T10:04:01.616Z,11.89
2022-10-20T10:06:33.909Z,11.94
2022-10-20T10:09:03.114Z,11.98
2022-10-20T10:11:35.220Z,11.97
2022-10-20T10:14:05.655Z,12.04
2022-10-20T10:16:42.200Z,11.95
2022-10-20T10:19:18.297Z,12.00
2022-10-20T10:21:49.482Z,12.02
2022-10-20T10:24:39.185Z,12.05
2022-10-20T10:27:18.843Z,12.11
2022-10-20T10:29:47.728Z,12.13
2022-10-20T10:32:17.614Z,12.16
2022-10-20T10:34:59.770Z,12.19
2022-10-20T10:37:30.881Z,12.25
2022-10-20T10:40:03.312Z,12.19
2022-10-20T10:42:44.426Z,12.26
2022-10-20T10:45:19.556Z,12.30
2022-10-20T10:48:18.753Z,12.35
2022-10-20T10:50:52.252Z,12.37
2022-10-20T10:53:29.712Z,12.38
2022-10-20T10:56:05.187Z,12.44
2022-10-20T10:58:46.057Z,12.49
2022-10-20T11:01:45.948Z,12.52
2022-10-20T11:04:49.280Z,12.56
2022-10-20T11:07:28.925Z,12.58
2022-10-20T11:10:10.638Z,12.63
2022-10-20T11:12:52.000Z,12.63
2022-10-20T11:15:33.545Z,12.60
2022-10-20T11:18:13.154Z,12.76
2022-10-20T11:20:51.839Z,12.86
2022-10-20T11:23:54.824Z,12.82
2022-10-20T11:26:29.015Z,12.86
2022-10-20T11:28:59.158Z,12.88
2022-10-20T11:31:32.265Z,12.76
2022-10-20T11:34:06.682Z,12.78
2022-10-20T11:36:40.639Z,12.80
2022-10-20T11:39:16.764Z,12.74
2022-10-20T11:41:48.833Z,12.66
2022-10-20T11:44:22.206Z,12.71
2022-10-20T11:46:53.535Z,12.64
2022-10-20T11:49:22.707Z,12.61
2022-10-20T11:52:25.484Z,12.73
2022-10-20T11:55:16.150Z,12.71
2022-10-20T11:58:00.399Z,12.72
2022-10-20T12:00:44.890Z,12.73
2022-10-20T12:03:41.824Z,12.82
2022-10-20T12:06:37.152Z,12.92
2022-10-20T12:09:21.879Z,12.96
2022-10-20T12:11:54.700Z,12.99
2022-10-20T12:14:26.972Z,13.08
2022-10-20T12:17:24.544Z,13.04
2022-10-20T12:19:52.853Z,12.97
2022-10-20T12:22:42.734Z,13.08
2022-10-20T12:25:24.084Z,13.11
2022-10-20T12:28:24.886Z,13.14
2022-10-20T12:30:57.366Z,13.14
2022-10-20T12:33:37.621Z,13.22
2022-10-20T12:36:35.997Z,13.15
2022-10-20T12:39:17.465Z,13.24
2022-10-20T12:41:57.128Z,13.28
2022-10-20T12:44:25.169Z,13.34
2022-10-20T12:46:56.646Z,13.27
2022-10-20T12:49:30.631Z,13.28
2022-10-20T12:51:59.978Z,13.28
2022-10-20T12:54:37.861Z,13.40
2022-10-20T12:57:26.166Z,13.35
2022-10-20T12:59:53.971Z,13.36
2022-10-20T13:02:31.966Z,13.45
2022-10-20T13:05:01.729Z,13.42
2022-10-20T13:08:18.198Z,13.48
2022-10-20T13:10:47.075Z,13.54
2022-10-20T13:13:56.631Z,13.64
2022-10-20T13:16:31.924Z,13.72
2022-10-20T13:19:01.115Z,13.71
2022-10-20T13:21:33.003Z,13.73
2022-10-20T13:24:18.058Z,13.83
2022-10-20T13:26:52.231Z,13.92
2022-10-20T13:29:23.748Z,13.91
2022-10-20T13:32:03.832Z,13.89
2022-10-20T13:34:38.562Z,13.93
2022-10-20T13:37:22.699Z,13.94
2022-10-20T13:40:02.253Z,13.98
2022-10-20T13:42:43.584Z,14.02
2022-10-20T13:45:20.361Z,14.14
2022-10-20T13:47:50.977Z,14.01
2022-10-20T13:50:22.440Z,14.04
2022-10-20T13:52:54.992Z,14.01
2022-10-20T13:55:25.589Z,14.09
2022-10-20T13:57:57.016Z,14.06
2022-10-20T14:00:27.341Z,13.89
2022-10-20T14:03:02.654Z,13.84
2022-10-20T14:05:31.842Z,13.86
2022-10-20T14:08:04.660Z,14.08
2022-10-20T14:10:40.297Z,14.13
2022-10-20T14:13:14.179Z,14.21
2022-10-20T14:15:48.270Z,14.30
2022-10-20T14:18:23.554Z,14.34
2022-10-20T14:21:01.032Z,14.21
2022-10-20T14:23:30.409Z,14.15
2022-10-20T14:25:58.197Z,14.02
2022-10-20T14:28:32.516Z,14.02
2022-10-20T14:31:00.723Z,14.03
2022-10-20T14:33:29.410Z,13.99
2022-10-20T14:35:59.114Z,13.98
2022-10-20T14:38:33.106Z,13.98
2022-10-20T14:41:00.698Z,14.04
2022-10-20T14:43:38.947Z,14.06
2022-10-20T14:46:08.607Z,14.02
2022-10-20T14:48:39.134Z,14.13
2022-10-20T14:51:35.069Z,14.12
2022-10-20T14:54:17.173Z,14.17
2022-10-20T14:56:46.078Z,14.00
2022-10-20T14:59:16.502Z,14.11
2022-10-20T15:01:57.747Z,14.14
2022-10-20T15:04:26.851Z,14.23
2022-10-20T15:07:04.269Z,14.34
2022-10-20T15:09:35.383Z,14.34
2022-10-20T15:12:06.608Z,14.31
2022-10-20T15:14:35.730Z,14.26
2022-10-20T15:17:03.308Z,14.15
2022-10-20T15:19:37.389Z,14.16
2022-10-20T15:24:41.124Z,14.01
2022-10-20T15:27:15.639Z,14.00
2022-10-20T15:29:49.843Z,13.91
2022-10-20T15:32:17.922Z,13.91
2022-10-20T15:34:45.712Z,13.81
2022-10-20T15:37:13.092Z,13.76
2022-10-20T15:39:40.493Z,13.71
2022-10-20T15:42:11.071Z,13.69
2022-10-20T15:44:38.744Z,13.67
2022-10-20T15:47:09.867Z,13.55
2022-10-20T15:49:37.322Z,13.58
2022-10-20T15:52:04.755Z,13.55
2022-10-20T15:54:32.198Z,13.55
2022-10-20T15:56:59.632Z,13.46
2022-10-20T15:59:30.183Z,13.47
2022-10-20T16:01:57.576Z,13.39
2022-10-20T16:04:26.849Z,13.39
2022-10-20T16:06:58.889Z,13.33
2022-10-20T16:09:27.857Z,13.39
2022-10-20T16:11:55.332Z,13.37
2022-10-20T16:14:22.764Z,13.35
2022-10-20T16:16:50.196Z,13.30
2022-10-20T16:19:17.603Z,13.29
2022-10-20T16:21:46.321Z,13.26
2022-10-20T16:24:13.722Z,13.22
2022-10-20T16:26:41.156Z,13.21
2022-10-20T16:29:08.576Z,13.20
2022-10-20T16:31:36.243Z,13.17
2022-10-20T16:34:03.629Z,13.16
2022-10-20T16:36:31.079Z,13.11
2022-10-20T16:39:00.750Z,13.11
2022-10-20T16:41:28.194Z,13.13
2022-10-20T16:44:00.142Z,13.11
2022-10-20T16:46:28.492Z,13.14
2022-10-20T16:48:57.053Z,13.08
2022-10-20T16:51:24.515Z,13.04
2022-10-20T16:53:51.985Z,13.09
2022-10-20T16:56:21.298Z,13.05
2022-10-20T16:58:49.413Z,13.05
2022-10-20T17:01:19.168Z,13.10
2022-10-20T17:03:48.895Z,13.11
2022-10-20T17:06:18.398Z,13.08
2022-10-20T17:08:46.215Z,13.06
2022-10-20T17:11:15.729Z,13.09
2022-10-20T17:13:44.678Z,13.04
2022-10-20T17:16:14.122Z,13.04
2022-10-20T17:18:42.294Z,13.06
2022-10-20T17:21:10.592Z,13.08
2022-10-20T17:23:41.810Z,13.00
2022-10-20T17:26:14.040Z,13.06
2022-10-20T17:28:41.600Z,13.04
2022-10-20T17:31:11.889Z,13.01
2022-10-20T17:33:40.639Z,13.00
2022-10-20T17:36:09.230Z,12.89
2022-10-20T17:38:36.948Z,12.90
2022-10-20T17:41:04.877Z,12.79
2022-10-20T17:43:32.463Z,12.90
2022-10-20T17:46:01.328Z,12.89
2022-10-20T17:48:30.400Z,12.94
2022-10-20T17:51:02.333Z,12.90
2022-10-20T17:53:31.948Z,12.87
2022-10-20T17:56:01.687Z,12.79
2022-10-20T17:58:29.431Z,12.80
2022-10-20T18:01:07.355Z,12.81
2022-10-20T18:03:36.399Z,12.85
2022-10-20T18:06:08.538Z,12.83
2022-10-20T18:08:36.057Z,12.78
2022-10-20T18:11:03.864Z,12.74
2022-10-20T18:13:32.048Z,12.74
2022-10-20T18:15:59.462Z,12.77
2022-10-20T18:18:26.872Z,12.77
2022-10-20T18:20:56.308Z,12.70
2022-10-20T18:23:24.246Z,12.71
2022-10-20T18:25:51.692Z,12.68
2022-10-20T18:28:19.781Z,12.69
2022-10-20T18:30:47.255Z,12.69
2022-10-20T18:33:14.733Z,12.69
2022-10-20T18:35:42.164Z,12.67
2022-10-20T18:38:10.938Z,12.67
2022-10-20T18:40:38.343Z,12.63
2022-10-20T18:43:05.731Z,12.67
2022-10-20T18:45:33.151Z,12.66
2022-10-20T18:48:00.619Z,12.66
2022-10-20T18:50:28.067Z,12.66
2022-10-20T18:52:55.494Z,12.60
2022-10-20T18:55:24.297Z,12.69
2022-10-20T18:57:52.085Z,12.63
2022-10-20T19:00:19.660Z,12.58
2022-10-20T19:02:51.234Z,12.50
2022-10-20T19:05:18.792Z,12.52
2022-10-20T19:07:46.204Z,12.49
2022-10-20T19:10:13.603Z,12.50
2022-10-20T19:12:42.356Z,12.48
2022-10-20T19:15:09.937Z,12.48
2022-10-20T19:17:37.744Z,12.46
2022-10-20T19:20:05.574Z,12.44
2022-10-20T19:22:32.986Z,12.48
2022-10-20T19:25:00.398Z,12.51
2022-10-20T19:27:27.862Z,12.55
2022-10-20T19:29:56.823Z,12.64
2022-10-20T19:32:24.227Z,12.74
2022-10-20T19:34:51.649Z,12.79
2022-10-20T19:37:19.156Z,12.83
2022-10-20T19:39:46.576Z,12.87
2022-10-20T19:42:14.001Z,12.89
2022-10-20T19:44:41.925Z,12.92
2022-10-20T19:47:10.831Z,12.92
2022-10-20T19:49:38.548Z,13.01
2022-10-20T19:52:06.415Z,13.03
2022-10-20T19:54:34.158Z,13.01
2022-10-20T19:57:01.662Z,13.04
2022-10-20T19:59:29.152Z,13.08
2022-10-20T20:01:56.634Z,13.13
2022-10-20T20:04:25.689Z,13.12
2022-10-20T20:06:53.128Z,13.16
2022-10-20T20:09:20.580Z,13.19
2022-10-20T20:11:48.025Z,13.20
2022-10-20T20:14:17.798Z,13.20
2022-10-20T20:16:47.509Z,13.18
2022-10-20T20:19:16.691Z,13.17
2022-10-20T20:21:46.306Z,13.14
2022-10-20T20:24:14.374Z,13.14
2022-10-20T20:26:42.111Z,13.15
2022-10-20T20:29:10.672Z,13.14
2022-10-20T20:31:38.206Z,13.11
2022-10-20T20:34:05.734Z,13.12
2022-10-20T20:36:33.208Z,13.14
2022-10-20T20:39:02.095Z,13.15
2022-10-20T20:41:31.101Z,13.03
2022-10-20T20:44:01.018Z,13.18
2022-10-20T20:46:32.991Z,13.19
2022-10-20T20:49:02.523Z,13.18
2022-10-20T20:51:33.219Z,13.19
2022-10-20T20:54:02.930Z,13.14
2022-10-20T20:56:30.864Z,13.15
2022-10-20T20:58:58.436Z,13.12
2022-10-20T21:01:28.026Z,13.06
2022-10-20T21:03:56.639Z,13.03
2022-10-20T21:06:33.287Z,13.03
2022-10-20T21:09:02.986Z,13.04
2022-10-20T21:11:30.881Z,13.05
2022-10-20T21:13:59.669Z,13.08
2022-10-20T21:16:28.861Z,13.11
2022-10-20T21:18:58.657Z,13.17
2022-10-20T21:21:27.576Z,13.15
2022-10-20T21:23:56.439Z,13.30
2022-10-20T21:26:26.093Z,13.34
2022-10-20T21:28:53.707Z,13.30
2022-10-20T21:31:23.214Z,13.41
2022-10-20T21:33:52.959Z,13.43
2022-10-20T21:36:21.573Z,13.48
2022-10-20T21:38:49.760Z,13.46
2022-10-20T21:41:19.313Z,13.45
2022-10-20T21:43:50.277Z,13.54
2022-10-20T21:46:19.805Z,13.54
2022-10-20T21:48:49.221Z,13.56
2022-10-20T21:51:19.149Z,13.60
2022-10-20T21:53:47.448Z,13.59
2022-10-20T21:56:15.863Z,13.70
2022-10-20T21:58:43.418Z,13.75
2022-10-20T22:01:13.917Z,13.81
2022-10-20T22:03:41.761Z,13.86
2022-10-20T22:06:10.801Z,13.82
2022-10-20T22:08:39.842Z,13.81
2022-10-20T22:11:09.767Z,13.81
2022-10-20T22:13:37.774Z,13.81
2022-10-20T22:16:07.184Z,13.72
2022-10-20T22:18:36.356Z,13.71
2022-10-20T22:21:04.803Z,13.65
2022-10-20T22:23:33.784Z,13.60
2022-10-20T22:26:01.407Z,13.54
2022-10-20T22:28:29.114Z,13.45
2022-10-20T22:30:56.612Z,13.39
2022-10-20T22:33:24.200Z,13.37
2022-10-20T22:35:52.999Z,13.32
2022-10-20T22:38:20.460Z,13.30
2022-10-20T22:40:47.882Z,13.26
2022-10-20T22:43:15.344Z,13.19
2022-10-20T22:45:42.816Z,13.16
2022-10-20T22:48:10.207Z,13.10
2022-10-20T22:50:37.636Z,13.05
2022-10-20T22:53:06.361Z,12.99
2022-10-20T22:55:33.794Z,12.96
2022-10-20T22:58:01.254Z,12.96
2022-10-20T23:00:28.731Z,12.98
2022-10-20T23:02:56.343Z,12.87
2022-10-20T23:05:23.912Z,12.83
2022-10-20T23:07:51.376Z,12.83
2022-10-20T23:10:20.203Z,12.91
2022-10-20T23:12:47.659Z,12.93
2022-10-20T23:15:15.194Z,12.91
2022-10-20T23:17:42.754Z,12.84
2022-10-20T23:20:11.459Z,12.76
2022-10-20T23:22:38.918Z,12.74
2022-10-20T23:25:07.143Z,12.70
2022-10-20T23:27:36.746Z,12.71
2022-10-20T23:30:05.005Z,12.72
2022-10-20T23:32:32.456Z,12.52
2022-10-20T23:35:00.002Z,12.61
2022-10-20T23:37:27.454Z,12.57
2022-10-20T23:39:54.866Z,12.56
2022-10-20T23:42:22.340Z,12.53
2022-10-20T23:44:51.169Z,12.51
2022-10-20T23:47:18.629Z,12.47
2022-10-20T23:49:46.099Z,12.45
2022-10-20T23:52:13.516Z,12.46
2022-10-20T23:54:40.975Z,12.41
2022-10-20T23:57:08.426Z,12.34
2022-10-20T23:59:35.842Z,12.27
